Time;durP1;ratioP1;P1;durP2;ratioP2;P2;SDS_P1;SDS_P2;PMS_P1;PMS_P2;Temp;Humidity;BMP_temperature;BMP_pressure;BME280_temperature;BME280_humidity;BME280_pressure;Samples;Min_cycle;Max_cycle;Signal;HPM_P1;HPM_P2
2023/03/07 00:00:52;;;;;;;2.08;1.40;;;7.50;93.40;;;;;;4984041;28;20110;-82
2023/03/07 00:03:19;;;;;;;3.00;1.60;;;7.50;93.40;;;;;;4987579;28;20128;-81
2023/03/07 00:05:45;;;;;;;2.80;1.45;;;7.50;93.50;;;;;;4979560;28;20020;-82
2023/03/07 00:08:11;;;;;;;2.78;1.33;;;7.50;93.50;;;;;;5006593;28;20322;-81
2023/03/07 00:10:37;;;;;;;4.17;1.80;;;7.50;93.60;;;;;;4975438;28;20376;-81
2023/03/07 00:13:03;;;;;;;2.95;1.63;;;7.50;93.70;;;;;;4956966;28;20821;-82
2023/03/07 00:15:29;;;;;;;2.75;1.33;;;7.50;93.70;;;;;;4982397;28;20383;-83
2023/03/07 00:17:56;;;;;;;3.42;2.10;;;7.40;93.70;;;;;;5010965;28;20385;-80
2023/03/07 00:20:21;;;;;;;2.93;1.70;;;7.50;93.80;;;;;;4986721;28;20026;-80
2023/03/07 00:22:47;;;;;;;2.90;1.40;;;7.40;93.90;;;;;;4984249;28;20487;-82
2023/03/07 00:25:14;;;;;;;3.17;1.58;;;7.40;93.90;;;;;;5011892;28;20109;-79
2023/03/07 00:27:40;;;;;;;3.30;1.53;;;7.40;93.90;;;;;;4977151;28;20422;-82
2023/03/07 00:30:06;;;;;;;3.25;1.30;;;7.40;93.90;;;;;;4951603;28;20326;-81
2023/03/07 00:32:32;;;;;;;3.97;1.48;;;7.40;94.00;;;;;;4996327;28;20497;-81
2023/03/07 00:34:59;;;;;;;3.30;1.53;;;7.40;94.00;;;;;;5000203;28;20396;-81
2023/03/07 00:37:25;;;;;;;2.88;1.50;;;7.40;94.10;;;;;;5028535;28;20213;-81
2023/03/07 00:39:51;;;;;;;3.58;1.20;;;7.40;94.10;;;;;;5000927;28;20494;-84
2023/03/07 00:42:17;;;;;;;2.70;1.60;;;7.40;94.20;;;;;;4981342;28;20189;-81
2023/03/07 00:44:42;;;;;;;3.38;1.30;;;7.40;94.20;;;;;;4971849;28;20033;-82
2023/03/07 00:47:08;;;;;;;1.90;1.20;;;7.40;94.30;;;;;;5013107;28;20042;-80
2023/03/07 00:49:34;;;;;;;2.53;1.30;;;7.40;94.30;;;;;;5012548;28;20165;-80
2023/03/07 00:52:00;;;;;;;2.67;1.38;;;7.40;94.40;;;;;;4985787;28;20029;-80
2023/03/07 00:54:26;;;;;;;2.10;1.20;;;7.40;94.40;;;;;;4992761;28;20530;-82
2023/03/07 00:56:51;;;;;;;2.60;1.25;;;7.40;94.50;;;;;;5016623;28;20049;-82
2023/03/07 00:59:17;;;;;;;2.70;1.45;;;7.40;94.60;;;;;;5017964;28;20030;-81
2023/03/07 01:01:43;;;;;;;4.60;1.50;;;7.40;94.60;;;;;;4977132;28;20037;-82
2023/03/07 01:04:09;;;;;;;3.27;1.50;;;7.40;94.70;;;;;;5014348;28;20293;-80
2023/03/07 01:06:35;;;;;;;3.75;1.80;;;7.50;94.70;;;;;;5008986;28;20033;-82
2023/03/07 01:09:06;;;;;;;5.80;1.70;;;7.50;94.80;;;;;;4983853;28;20038;-82
2023/03/07 01:11:32;;;;;;;3.87;1.80;;;7.50;94.90;;;;;;4976307;28;20067;-81
2023/03/07 01:14:00;;;;;;;3.33;1.60;;;7.50;94.90;;;;;;4995256;28;20025;-81
2023/03/07 01:16:36;;;;;;;3.72;2.00;;;7.50;95.00;;;;;;5009613;28;20025;-81
2023/03/07 01:19:06;;;;;;;3.97;2.03;;;7.50;95.10;;;;;;4995117;28;20215;-81
2023/03/07 01:21:38;;;;;;;5.32;1.83;;;7.50;95.10;;;;;;4974320;28;20053;-81
2023/03/07 01:24:05;;;;;;;4.60;2.10;;;7.50;95.20;;;;;;5002655;28;20494;-80
2023/03/07 01:26:32;;;;;;;3.42;1.90;;;7.50;95.20;;;;;;4996460;28;20048;-81
2023/03/07 01:29:00;;;;;;;4.80;2.28;;;7.50;95.30;;;;;;4996505;28;20091;-81
2023/03/07 01:31:29;;;;;;;4.65;2.30;;;7.50;95.40;;;;;;4994495;28;20059;-80
2023/03/07 01:33:55;;;;;;;4.28;2.30;;;7.40;95.50;;;;;;4972445;28;20266;-81
2023/03/07 01:36:29;;;;;;;6.33;2.20;;;7.50;95.60;;;;;;4990635;28;20376;-80
2023/03/07 01:38:57;;;;;;;5.22;2.63;;;7.50;95.70;;;;;;4977149;28;20328;-81
2023/03/07 01:41:23;;;;;;;6.00;2.78;;;7.50;95.80;;;;;;5001433;28;20040;-82
2023/03/07 01:43:49;;;;;;;7.20;3.90;;;7.50;95.80;;;;;;4998683;28;20112;-81
2023/03/07 01:46:18;;;;;;;7.43;3.70;;;7.50;95.90;;;;;;5017580;28;20036;-80
2023/03/07 01:49:08;;;;;;;6.70;3.40;;;7.50;96.00;;;;;;4971560;28;20037;-84
2023/03/07 01:51:35;;;;;;;9.02;4.55;;;7.40;96.00;;;;;;5019065;28;20139;-81
2023/03/07 01:54:01;;;;;;;7.82;3.88;;;7.50;96.10;;;;;;4971604;28;20203;-82
2023/03/07 01:56:28;;;;;;;6.85;3.25;;;7.40;96.20;;;;;;4992761;28;20128;-81
2023/03/07 01:58:55;;;;;;;7.47;3.90;;;7.40;96.20;;;;;;4985470;28;20074;-82
2023/03/07 02:01:22;;;;;;;6.93;3.50;;;7.40;96.30;;;;;;5001731;28;20056;-79
2023/03/07 02:03:56;;;;;;;7.50;3.60;;;7.40;96.30;;;;;;4980770;28;20025;-83
2023/03/07 02:06:26;;;;;;;7.13;3.70;;;7.40;96.40;;;;;;4997909;28;20025;-80
2023/03/07 02:08:54;;;;;;;8.00;3.80;;;7.40;96.40;;;;;;4969871;28;20056;-83
2023/03/07 02:11:20;;;;;;;7.53;3.50;;;7.40;96.50;;;;;;5006389;28;20108;-79
2023/03/07 02:13:46;;;;;;;8.20;4.40;;;7.40;96.60;;;;;;5011425;28;20544;-83
2023/03/07 02:16:12;;;;;;;9.80;4.28;;;7.40;96.60;;;;;;5013333;28;20029;-81
2023/03/07 02:18:43;;;;;;;8.70;4.10;;;7.40;96.70;;;;;;4977076;28;20431;-83
2023/03/07 02:21:40;;;;;;;7.75;4.15;;;7.30;96.70;;;;;;4981656;28;20711;-79
2023/03/07 02:24:12;;;;;;;7.47;3.87;;;7.30;96.80;;;;;;4980272;28;20261;-83
2023/03/07 02:26:50;;;;;;;7.25;3.50;;;7.30;96.90;;;;;;5010569;28;20045;-83
2023/03/07 02:29:16;;;;;;;9.00;4.32;;;7.30;96.90;;;;;;5008014;28;20100;-83
2023/03/07 02:31:42;;;;;;;9.13;4.55;;;7.30;97.00;;;;;;4996446;28;20523;-82
2023/03/07 02:34:19;;;;;;;8.27;4.17;;;7.20;97.00;;;;;;4974585;28;20507;-81
2023/03/07 02:36:45;;;;;;;8.68;4.88;;;7.30;97.10;;;;;;4986117;28;20368;-82
2023/03/07 02:39:12;;;;;;;7.68;3.53;;;7.20;97.20;;;;;;4998928;28;20587;-80
2023/03/07 02:41:39;;;;;;;8.57;4.00;;;7.20;97.20;;;;;;4994717;28;20263;-81
2023/03/07 02:44:05;;;;;;;8.97;4.00;;;7.20;97.30;;;;;;4968128;28;20463;-84
2023/03/07 02:46:31;;;;;;;10.60;4.45;;;7.20;97.40;;;;;;5011431;28;20022;-80
2023/03/07 02:48:56;;;;;;;8.07;3.97;;;7.10;97.50;;;;;;4974003;28;20123;-81
2023/03/07 02:51:22;;;;;;;8.45;4.03;;;7.20;97.60;;;;;;4956738;28;20080;-82
2023/03/07 02:53:47;;;;;;;7.90;3.57;;;7.20;97.60;;;;;;4988381;28;20018;-82
2023/03/07 02:56:13;;;;;;;7.50;3.70;;;7.10;97.70;;;;;;4984340;28;20030;-82
2023/03/07 02:58:39;;;;;;;7.73;3.93;;;7.10;97.70;;;;;;4978013;28;20022;-83
2023/03/07 03:01:05;;;;;;;7.75;3.45;;;7.10;97.80;;;;;;4967925;28;20030;-80
2023/03/07 03:03:31;;;;;;;8.82;3.75;;;7.10;97.90;;;;;;4993544;28;20049;-80
2023/03/07 03:05:57;;;;;;;9.30;4.10;;;7.10;97.90;;;;;;4966632;28;20471;-82
2023/03/07 03:08:22;;;;;;;8.02;4.32;;;7.10;98.00;;;;;;4974267;28;20387;-82
2023/03/07 03:10:54;;;;;;;7.97;3.87;;;7.10;98.00;;;;;;4952441;28;20235;-82
2023/03/07 03:13:20;;;;;;;8.80;4.75;;;7.10;98.00;;;;;;5009690;28;20030;-80
2023/03/07 03:15:46;;;;;;;7.88;4.18;;;7.10;98.10;;;;;;4968543;28;20057;-85
2023/03/07 03:18:12;;;;;;;8.45;3.97;;;7.20;98.20;;;;;;5009164;28;20014;-81
2023/03/07 03:20:40;;;;;;;8.23;4.03;;;7.10;98.20;;;;;;5003953;28;20037;-83
2023/03/07 03:23:05;;;;;;;8.88;3.97;;;7.10;98.30;;;;;;4974916;28;20041;-82
2023/03/07 03:25:31;;;;;;;8.48;4.28;;;7.10;98.30;;;;;;4995467;28;20030;-81
2023/03/07 03:27:57;;;;;;;9.80;4.33;;;7.10;98.40;;;;;;4980310;28;20065;-81
2023/03/07 03:30:22;;;;;;;8.40;4.18;;;7.10;98.50;;;;;;4966135;28;20040;-81
2023/03/07 03:32:48;;;;;;;8.67;4.30;;;7.10;98.50;;;;;;5006833;28;20120;-82
2023/03/07 03:35:14;;;;;;;8.25;4.30;;;7.10;98.50;;;;;;4992845;28;20088;-81
2023/03/07 03:37:40;;;;;;;8.93;4.50;;;7.10;98.60;;;;;;5003898;28;20092;-83
2023/03/07 03:40:13;;;;;;;8.73;3.95;;;7.10;99.00;;;;;;5001547;28;20474;-80
2023/03/07 03:42:40;;;;;;;9.98;4.53;;;7.10;98.70;;;;;;4968015;28;20081;-83
2023/03/07 03:45:07;;;;;;;9.83;4.57;;;7.10;98.80;;;;;;4967880;28;20236;-79
2023/03/07 03:47:33;;;;;;;7.88;4.25;;;7.10;98.90;;;;;;4986697;28;20123;-80
2023/03/07 03:49:58;;;;;;;8.80;4.53;;;7.10;98.90;;;;;;4989227;28;20626;-81
2023/03/07 03:52:24;;;;;;;8.93;4.37;;;7.10;99.00;;;;;;4972082;28;20021;-83
2023/03/07 03:54:50;;;;;;;10.03;5.30;;;7.10;99.00;;;;;;4976466;28;20088;-82
2023/03/07 03:57:17;;;;;;;10.35;4.95;;;7.10;99.10;;;;;;4989803;28;20040;-81
2023/03/07 03:59:44;;;;;;;9.60;4.57;;;7.20;99.10;;;;;;4984357;28;20411;-84
2023/03/07 04:02:10;;;;;;;9.27;4.50;;;7.20;99.10;;;;;;4986335;28;20642;-81
2023/03/07 04:04:36;;;;;;;7.85;4.32;;;7.20;99.20;;;;;;4978423;28;20112;-83
2023/03/07 04:07:03;;;;;;;8.20;4.50;;;7.20;99.30;;;;;;4984131;28;21127;-81
2023/03/07 04:09:29;;;;;;;8.77;4.30;;;7.20;99.30;;;;;;4990126;28;20030;-80
2023/03/07 04:11:56;;;;;;;9.25;4.63;;;7.20;99.30;;;;;;4992195;28;20759;-84
2023/03/07 04:14:22;;;;;;;9.93;5.10;;;7.20;99.30;;;;;;5001637;28;20514;-81
2023/03/07 04:16:48;;;;;;;8.68;4.60;;;7.20;99.30;;;;;;4968407;28;20034;-84
2023/03/07 04:19:14;;;;;;;10.10;5.30;;;7.20;99.30;;;;;;4974794;28;20026;-82
2023/03/07 04:21:40;;;;;;;8.88;4.50;;;7.20;99.30;;;;;;4993403;28;20069;-81
2023/03/07 04:24:09;;;;;;;10.77;5.13;;;7.20;99.30;;;;;;4984095;28;20247;-82
2023/03/07 04:26:35;;;;;;;10.40;5.13;;;7.20;99.30;;;;;;4990240;28;20288;-82
2023/03/07 04:29:03;;;;;;;11.32;5.45;;;7.20;99.30;;;;;;4968838;28;20262;-81
2023/03/07 04:31:29;;;;;;;9.23;4.88;;;7.20;99.30;;;;;;4981386;28;20033;-79
2023/03/07 04:33:56;;;;;;;10.68;4.93;;;7.20;99.30;;;;;;4986950;28;20257;-81
2023/03/07 04:36:23;;;;;;;11.27;5.80;;;7.20;99.30;;;;;;4997007;28;20053;-83
2023/03/07 04:38:49;;;;;;;11.27;5.07;;;7.20;99.30;;;;;;4960078;28;20030;-83
2023/03/07 04:41:18;;;;;;;9.50;4.60;;;7.20;99.30;;;;;;4974344;28;20022;-83
2023/03/07 04:43:44;;;;;;;10.13;5.05;;;7.20;99.30;;;;;;4952919;28;20034;-80
2023/03/07 04:46:11;;;;;;;11.00;5.05;;;7.20;99.30;;;;;;4987196;28;20026;-80
2023/03/07 04:48:37;;;;;;;9.20;5.03;;;7.20;99.30;;;;;;5001235;28;20030;-81
2023/03/07 04:51:03;;;;;;;8.73;4.32;;;7.20;99.40;;;;;;5012165;28;20458;-81
2023/03/07 04:53:29;;;;;;;8.52;4.82;;;7.20;99.40;;;;;;4992392;28;20129;-83
2023/03/07 04:55:59;;;;;;;9.80;5.00;;;7.20;99.40;;;;;;4988322;28;20254;-82
2023/03/07 04:58:29;;;;;;;9.68;4.93;;;7.20;99.50;;;;;;4996458;28;20022;-80
2023/03/07 05:00:56;;;;;;;10.18;5.57;;;7.10;99.50;;;;;;4984624;28;20038;-83
2023/03/07 05:03:23;;;;;;;10.05;5.20;;;7.10;99.60;;;;;;5003977;28;20112;-82
2023/03/07 05:05:49;;;;;;;9.30;4.60;;;7.10;99.60;;;;;;4995023;28;20041;-85
2023/03/07 05:08:14;;;;;;;9.38;4.78;;;7.10;99.60;;;;;;4994549;28;20376;-82
2023/03/07 05:10:40;;;;;;;9.60;4.95;;;7.10;99.70;;;;;;4969339;28;20414;-80
2023/03/07 05:13:07;;;;;;;7.65;4.20;;;7.10;99.80;;;;;;4990669;28;20688;-81
2023/03/07 05:15:34;;;;;;;9.63;4.63;;;7.10;99.80;;;;;;4983761;28;20468;-83
2023/03/07 05:18:00;;;;;;;9.93;5.30;;;7.10;99.80;;;;;;5009323;28;20026;-82
2023/03/07 05:20:26;;;;;;;8.20;4.32;;;7.10;99.80;;;;;;4972009;28;20045;-80
2023/03/07 05:22:52;;;;;;;8.70;4.50;;;7.10;99.90;;;;;;4974281;28;20701;-83
2023/03/07 05:25:17;;;;;;;8.47;4.57;;;7.10;99.90;;;;;;4995390;28;20220;-81
2023/03/07 05:27:44;;;;;;;9.90;5.03;;;7.10;99.90;;;;;;4966193;28;20477;-81
2023/03/07 05:30:11;;;;;;;7.63;4.13;;;7.10;99.90;;;;;;4980504;28;20247;-81
2023/03/07 05:32:38;;;;;;;10.48;5.32;;;7.10;99.90;;;;;;4990997;28;20372;-81
2023/03/07 05:35:04;;;;;;;9.37;4.73;;;7.10;99.80;;;;;;4966818;28;20407;-81
2023/03/07 05:37:30;;;;;;;10.57;5.72;;;7.10;99.90;;;;;;4994851;28;20479;-81
2023/03/07 05:39:56;;;;;;;11.82;6.53;;;7.10;99.90;;;;;;5010289;28;20025;-83
2023/03/07 05:42:21;;;;;;;11.20;5.60;;;7.10;99.90;;;;;;4972686;28;20623;-80
2023/03/07 05:44:47;;;;;;;11.93;5.00;;;7.10;99.90;;;;;;4998323;28;20101;-82
2023/03/07 05:47:13;;;;;;;9.97;5.07;;;7.10;99.90;;;;;;5001425;28;20026;-81
2023/03/07 05:49:38;;;;;;;8.27;4.40;;;7.10;99.90;;;;;;4995248;28;20038;-82
2023/03/07 05:52:04;;;;;;;9.03;5.03;;;7.10;99.90;;;;;;4967448;28;20045;-80
2023/03/07 05:54:30;;;;;;;8.40;4.30;;;7.10;99.90;;;;;;5008423;28;20018;-81
2023/03/07 05:56:56;;;;;;;11.43;5.50;;;7.10;99.90;;;;;;4994989;28;20061;-84
2023/03/07 05:59:22;;;;;;;11.50;5.72;;;7.10;99.90;;;;;;4974255;28;20207;-80
2023/03/07 06:01:47;;;;;;;10.27;5.00;;;7.10;99.90;;;;;;4987507;28;20041;-83
2023/03/07 06:04:13;;;;;;;9.95;5.10;;;7.10;99.90;;;;;;4975926;28;20033;-83
2023/03/07 06:06:39;;;;;;;9.23;4.53;;;7.10;99.90;;;;;;4953839;28;20060;-82
2023/03/07 06:09:05;;;;;;;8.45;4.55;;;7.10;99.90;;;;;;4979151;28;20030;-82
2023/03/07 06:11:31;;;;;;;8.38;4.40;;;7.10;99.90;;;;;;4977147;28;20135;-81
2023/03/07 06:13:57;;;;;;;8.97;4.37;;;7.10;99.90;;;;;;4956433;28;20026;-81
2023/03/07 06:16:23;;;;;;;9.23;4.60;;;7.10;99.90;;;;;;4961992;28;20471;-84
2023/03/07 06:18:49;;;;;;;9.18;5.05;;;7.10;99.90;;;;;;4981479;28;20383;-82
2023/03/07 06:21:17;;;;;;;8.77;4.20;;;7.10;99.90;;;;;;4970444;28;20499;-82
2023/03/07 06:23:44;;;;;;;8.35;4.25;;;7.20;99.90;;;;;;4965114;28;20199;-81
2023/03/07 06:26:11;;;;;;;8.88;4.88;;;7.20;99.90;;;;;;4978884;28;20049;-84
2023/03/07 06:28:41;;;;;;;8.95;4.60;;;7.20;99.90;;;;;;4951896;28;20128;-81
2023/03/07 06:31:12;;;;;;;7.20;4.20;;;7.20;99.90;;;;;;4989801;28;20033;-80
2023/03/07 06:33:37;;;;;;;8.55;4.10;;;7.20;99.90;;;;;;4958968;28;20040;-83
2023/03/07 06:36:09;;;;;;;8.25;4.40;;;7.30;99.90;;;;;;4979547;28;20492;-80
2023/03/07 06:38:35;;;;;;;10.07;4.50;;;7.30;99.90;;;;;;4970246;28;20143;-80
2023/03/07 06:41:01;;;;;;;8.00;4.57;;;7.30;99.90;;;;;;4978339;28;20141;-81
2023/03/07 06:43:28;;;;;;;8.48;4.70;;;7.30;99.90;;;;;;4965690;28;20026;-81
2023/03/07 06:45:53;;;;;;;9.80;5.38;;;7.30;99.90;;;;;;5001551;28;20515;-80
2023/03/07 06:48:19;;;;;;;11.30;5.83;;;7.30;99.90;;;;;;4968311;28;20029;-84
2023/03/07 06:50:45;;;;;;;10.40;5.30;;;7.30;99.90;;;;;;4964829;28;20471;-82
2023/03/07 06:53:11;;;;;;;9.43;5.22;;;7.30;99.90;;;;;;4987026;28;20391;-82
2023/03/07 06:55:37;;;;;;;9.13;4.97;;;7.30;99.90;;;;;;5009593;28;20026;-82
2023/03/07 06:58:03;;;;;;;9.27;5.03;;;7.40;99.90;;;;;;4990813;28;20026;-84
2023/03/07 07:00:29;;;;;;;9.85;5.10;;;7.40;99.90;;;;;;4955639;28;20611;-81
2023/03/07 07:02:55;;;;;;;11.35;4.75;;;7.40;99.90;;;;;;5007320;28;20263;-81
2023/03/07 07:05:21;;;;;;;9.40;5.50;;;7.40;99.90;;;;;;4949431;28;20030;-83
2023/03/07 07:07:47;;;;;;;9.75;4.97;;;7.40;99.90;;;;;;5013639;28;20036;-83
2023/03/07 07:10:13;;;;;;;8.35;4.50;;;7.40;99.90;;;;;;4981978;28;20022;-79
2023/03/07 07:12:39;;;;;;;9.80;4.72;;;7.40;99.90;;;;;;4978065;28;20031;-82
2023/03/07 07:15:05;;;;;;;9.37;4.73;;;7.50;99.90;;;;;;4938008;28;20034;-80
2023/03/07 07:17:34;;;;;;;10.82;5.57;;;7.50;99.90;;;;;;5009066;28;20503;-82
2023/03/07 07:20:01;;;;;;;10.63;5.80;;;7.50;99.90;;;;;;4966173;28;20109;-84
2023/03/07 07:22:27;;;;;;;11.07;5.45;;;7.50;99.90;;;;;;4966808;28;20029;-84
2023/03/07 07:24:53;;;;;;;11.97;5.83;;;7.50;99.90;;;;;;4987734;28;20092;-81
2023/03/07 07:27:18;;;;;;;9.82;5.25;;;7.50;99.90;;;;;;4982344;28;20057;-82
2023/03/07 07:29:44;;;;;;;8.90;5.23;;;7.50;99.90;;;;;;4974549;28;20045;-82
2023/03/07 07:32:10;;;;;;;11.38;5.72;;;7.50;99.90;;;;;;4942169;28;20041;-85
2023/03/07 07:34:36;;;;;;;12.18;4.90;;;7.50;99.90;;;;;;4993707;28;20030;-81
2023/03/07 07:37:02;;;;;;;10.20;4.90;;;7.50;99.90;;;;;;4980105;28;20029;-83
2023/03/07 07:39:27;;;;;;;8.73;5.10;;;7.60;99.90;;;;;;4992128;28;20675;-83
2023/03/07 07:41:53;;;;;;;8.30;4.20;;;7.60;99.90;;;;;;5010603;28;20483;-81
2023/03/07 07:44:19;;;;;;;9.25;4.18;;;7.60;99.90;;;;;;5020326;28;20247;-80
2023/03/07 07:46:45;;;;;;;8.90;4.90;;;7.60;99.90;;;;;;4950426;28;20052;-82
2023/03/07 07:49:10;;;;;;;8.68;4.53;;;7.60;99.90;;;;;;4973175;28;20022;-82
2023/03/07 07:51:36;;;;;;;8.13;4.70;;;7.60;99.90;;;;;;4980352;28;20391;-82
2023/03/07 07:54:02;;;;;;;8.18;4.80;;;7.70;99.90;;;;;;4975279;28;20534;-82
2023/03/07 07:56:28;;;;;;;8.73;4.50;;;7.70;99.90;;;;;;4977681;28;20609;-82
2023/03/07 07:58:54;;;;;;;9.52;4.80;;;7.70;99.90;;;;;;4994322;28;20022;-82
2023/03/07 08:01:22;;;;;;;9.23;4.70;;;7.70;99.90;;;;;;5005563;28;20026;-81
2023/03/07 08:03:48;;;;;;;7.57;4.18;;;7.80;99.90;;;;;;4954885;28;20022;-83
2023/03/07 08:06:22;;;;;;;7.70;4.35;;;7.80;99.90;;;;;;4982178;28;20400;-83
2023/03/07 08:08:48;;;;;;;9.23;4.60;;;7.80;99.90;;;;;;4981916;28;20038;-82
2023/03/07 08:11:16;;;;;;;7.82;4.10;;;7.80;99.90;;;;;;4976088;28;21724;-80
2023/03/07 08:13:42;;;;;;;7.60;3.90;;;7.80;99.90;;;;;;4977243;28;20664;-81
2023/03/07 08:16:16;;;;;;;8.65;4.60;;;7.80;99.90;;;;;;4990737;28;20026;-82
2023/03/07 08:18:47;;;;;;;8.77;4.38;;;7.80;99.90;;;;;;4972850;28;20085;-81
2023/03/07 08:21:13;;;;;;;6.88;3.58;;;7.70;99.90;;;;;;4989202;28;20574;-81
2023/03/07 08:23:39;;;;;;;5.83;3.10;;;7.70;99.90;;;;;;4980304;28;20022;-82
2023/03/07 08:26:07;;;;;;;7.07;3.40;;;7.80;99.90;;;;;;4993251;28;20077;-83
2023/03/07 08:28:33;;;;;;;5.03;3.13;;;7.70;99.90;;;;;;4999914;28;20565;-82
2023/03/07 08:31:06;;;;;;;3.20;1.75;;;7.70;99.90;;;;;;4983795;28;20026;-82
2023/03/07 08:33:32;;;;;;;2.63;1.30;;;7.70;99.90;;;;;;4991165;28;21815;-80
2023/03/07 08:35:58;;;;;;;2.58;1.30;;;7.70;99.90;;;;;;4984474;28;20025;-83
2023/03/07 08:38:25;;;;;;;1.33;0.85;;;7.60;99.90;;;;;;4966993;28;20029;-81
2023/03/07 08:40:51;;;;;;;1.65;1.20;;;7.60;99.90;;;;;;4996601;28;20030;-81
2023/03/07 08:43:16;;;;;;;1.53;1.10;;;7.50;99.90;;;;;;4978941;28;20097;-83
2023/03/07 08:45:42;;;;;;;2.05;0.90;;;7.40;99.80;;;;;;5014453;28;20044;-80
2023/03/07 08:48:09;;;;;;;2.10;1.00;;;7.30;99.90;;;;;;4979563;28;20075;-82
2023/03/07 08:50:35;;;;;;;2.27;0.90;;;7.20;99.90;;;;;;4957371;28;20030;-82
2023/03/07 08:53:01;;;;;;;1.55;0.90;;;7.10;99.90;;;;;;4989109;28;20036;-82
2023/03/07 08:55:27;;;;;;;1.55;1.00;;;7.10;99.90;;;;;;5008457;28;20021;-83
2023/03/07 08:57:53;;;;;;;1.63;0.80;;;7.00;99.90;;;;;;4970559;28;20651;-81
2023/03/07 09:00:19;;;;;;;1.60;0.90;;;7.00;99.90;;;;;;4981461;28;20026;-81
2023/03/07 09:02:45;;;;;;;1.10;0.80;;;7.00;99.90;;;;;;5010653;28;20187;-80
2023/03/07 09:05:10;;;;;;;1.27;0.83;;;6.90;99.90;;;;;;4973105;28;20264;-79
2023/03/07 09:07:36;;;;;;;1.50;1.00;;;7.00;99.90;;;;;;4979310;28;20778;-83
2023/03/07 09:10:04;;;;;;;2.17;1.10;;;7.00;99.90;;;;;;5000845;28;20122;-80
2023/03/07 09:12:32;;;;;;;2.27;1.03;;;6.90;99.90;;;;;;5005300;28;20124;-82
2023/03/07 09:14:58;;;;;;;1.75;0.90;;;7.00;99.90;;;;;;4965651;28;20021;-83
2023/03/07 09:17:23;;;;;;;1.38;0.90;;;7.00;99.90;;;;;;4969715;28;20032;-83
2023/03/07 09:19:49;;;;;;;2.70;1.30;;;7.00;99.90;;;;;;4988589;28;20683;-81
2023/03/07 09:22:15;;;;;;;2.58;1.27;;;7.00;99.90;;;;;;4974445;28;20383;-85
2023/03/07 09:24:41;;;;;;;2.10;1.20;;;7.10;99.90;;;;;;4997829;28;20084;-82
2023/03/07 09:27:07;;;;;;;1.77;1.17;;;7.10;99.90;;;;;;4985662;28;20528;-84
2023/03/07 09:29:33;;;;;;;2.00;1.13;;;7.10;99.90;;;;;;5017249;28;20032;-84
2023/03/07 09:32:02;;;;;;;2.83;1.43;;;7.10;99.90;;;;;;4996857;28;20036;-83
2023/03/07 09:34:28;;;;;;;2.53;1.40;;;7.10;99.90;;;;;;4994234;28;20741;-84
2023/03/07 09:36:54;;;;;;;2.80;1.30;;;7.20;99.90;;;;;;4972052;28;20232;-81
2023/03/07 09:39:19;;;;;;;2.47;1.60;;;7.20;99.90;;;;;;4997043;28;20548;-84
2023/03/07 09:42:01;;;;;;;2.63;1.50;;;7.20;99.90;;;;;;4979822;28;20164;-82
2023/03/07 09:44:45;;;;;;;2.70;1.60;;;7.40;99.90;;;;;;4986784;28;20803;-84
2023/03/07 09:47:43;;;;;;;2.97;1.65;;;7.40;99.90;;;;;;4996678;28;20589;-80
2023/03/07 09:50:50;;;;;;;3.05;1.67;;;7.50;99.90;;;;;;4996217;28;20037;-81
2023/03/07 09:53:36;;;;;;;3.53;1.77;;;7.50;99.90;;;;;;4952901;28;20034;-81
2023/03/07 09:56:07;;;;;;;3.58;1.80;;;7.50;99.90;;;;;;4978949;28;20036;-80
2023/03/07 09:58:41;;;;;;;4.00;2.00;;;7.60;99.90;;;;;;5002931;28;20033;-85
2023/03/07 10:01:11;;;;;;;3.17;1.88;;;7.60;99.90;;;;;;4988944;28;20029;-83
2023/03/07 10:03:39;;;;;;;3.08;1.80;;;7.60;99.90;;;;;;5013205;28;20037;-82
2023/03/07 10:06:15;;;;;;;2.53;1.65;;;7.70;99.90;;;;;;4989548;28;20025;-85
2023/03/07 10:08:41;;;;;;;3.10;1.65;;;7.70;99.90;;;;;;4992021;28;20037;-81
2023/03/07 10:11:07;;;;;;;3.53;1.70;;;7.70;99.90;;;;;;4994669;28;20040;-83
2023/03/07 10:14:04;;;;;;;3.08;2.00;;;7.70;99.90;;;;;;5003814;28;20025;-81
2023/03/07 10:16:40;;;;;;;3.28;1.75;;;7.70;99.90;;;;;;4966791;28;20056;-82
2023/03/07 10:19:16;;;;;;;3.83;1.77;;;7.70;99.90;;;;;;4997779;28;20493;-86
2023/03/07 10:22:11;;;;;;;2.53;1.60;;;7.70;99.90;;;;;;4982923;28;20489;-83
2023/03/07 10:25:05;;;;;;;2.75;1.50;;;7.80;99.90;;;;;;4991844;28;20029;-84
2023/03/07 10:27:31;;;;;;;4.18;2.40;;;7.70;99.90;;;;;;5003271;28;20128;-81
2023/03/07 10:29:59;;;;;;;5.83;3.13;;;7.80;99.90;;;;;;4975018;28;20506;-86
2023/03/07 10:32:43;;;;;;;6.73;3.43;;;7.80;99.90;;;;;;5001816;28;20705;-81
2023/03/07 10:35:19;;;;;;;6.30;3.72;;;7.80;99.90;;;;;;4994659;28;20238;-83
2023/03/07 10:38:13;;;;;;;7.30;4.07;;;7.80;99.90;;;;;;4993093;28;20029;-81
2023/03/07 10:40:47;;;;;;;8.07;3.88;;;7.80;99.90;;;;;;5012841;28;20029;-83
2023/03/07 10:43:26;;;;;;;5.78;3.70;;;7.90;99.90;;;;;;4982018;28;20216;-81
2023/03/07 10:46:12;;;;;;;7.83;4.10;;;7.90;99.90;;;;;;5013524;28;20058;-86
2023/03/07 10:48:41;;;;;;;6.25;4.00;;;7.90;99.90;;;;;;4984775;28;20022;-82
2023/03/07 10:51:35;;;;;;;5.80;3.60;;;7.90;99.90;;;;;;4993184;28;20083;-86
2023/03/07 10:54:03;;;;;;;5.97;3.40;;;8.00;99.90;;;;;;4963750;28;20029;-85
2023/03/07 10:56:28;;;;;;;5.13;3.20;;;8.00;99.90;;;;;;5010399;28;20021;-84
2023/03/07 10:58:58;;;;;;;4.83;3.07;;;8.00;99.90;;;;;;4974279;28;20026;-84
2023/03/07 11:01:26;;;;;;;5.57;3.35;;;8.00;99.90;;;;;;4995959;28;20029;-83
2023/03/07 11:04:06;;;;;;;4.85;3.03;;;8.00;99.90;;;;;;4966787;28;20021;-87
2023/03/07 11:06:35;;;;;;;5.00;3.03;;;8.00;99.90;;;;;;5012801;28;20111;-81
2023/03/07 11:09:27;;;;;;;4.72;2.90;;;8.00;99.90;;;;;;4957120;28;20033;-86
2023/03/07 11:12:12;;;;;;;5.10;3.15;;;8.00;99.90;;;;;;4981067;28;20029;-84
2023/03/07 11:14:58;;;;;;;3.72;2.45;;;8.00;99.90;;;;;;5002230;28;20088;-85
2023/03/07 11:17:40;;;;;;;4.35;2.65;;;8.00;99.90;;;;;;4981299;28;20262;-82
2023/03/07 11:20:48;;;;;;;4.27;2.53;;;8.10;99.90;;;;;;5013643;28;20080;-86
2023/03/07 11:23:22;;;;;;;3.97;2.30;;;8.00;99.90;;;;;;4956961;28;20243;-84
2023/03/07 11:25:50;;;;;;;4.63;2.58;;;8.10;99.90;;;;;;4982522;28;20052;-82
2023/03/07 11:28:26;;;;;;;4.78;2.72;;;8.10;99.90;;;;;;4977615;28;20250;-82
2023/03/07 11:31:05;;;;;;;5.47;3.20;;;8.10;99.90;;;;;;4963170;28;20041;-85
2023/03/07 11:33:37;;;;;;;4.63;3.10;;;8.10;99.90;;;;;;4980326;28;20462;-83
2023/03/07 11:36:12;;;;;;;5.10;3.08;;;8.10;99.90;;;;;;4997300;28;20099;-88
2023/03/07 11:39:01;;;;;;;6.53;3.65;;;8.20;99.90;;;;;;4969650;28;20220;-83
2023/03/07 11:41:31;;;;;;;6.97;4.15;;;8.10;99.90;;;;;;4986695;28;20029;-82
2023/03/07 11:44:15;;;;;;;5.97;3.63;;;8.20;99.90;;;;;;4974984;28;20571;-86
2023/03/07 11:46:56;;;;;;;5.10;2.83;;;8.20;99.90;;;;;;4984939;28;20049;-82
2023/03/07 11:49:44;;;;;;;6.45;4.05;;;8.10;99.90;;;;;;4981801;28;20354;-84
2023/03/07 11:52:41;;;;;;;6.30;3.33;;;8.10;99.90;;;;;;5010008;28;20069;-81
2023/03/07 11:55:34;;;;;;;5.25;3.00;;;8.10;99.90;;;;;;4981355;28;20026;-84
2023/03/07 11:58:18;;;;;;;5.43;2.80;;;8.10;99.90;;;;;;4989600;28;20737;-85
2023/03/07 12:00:47;;;;;;;5.23;2.53;;;8.10;99.90;;;;;;4991462;28;20025;-82
2023/03/07 12:03:57;;;;;;;4.20;2.30;;;8.10;99.90;;;;;;4966160;28;20498;-83
2023/03/07 12:06:47;;;;;;;3.85;2.20;;;8.10;99.90;;;;;;4962368;28;20239;-82
2023/03/07 12:09:23;;;;;;;4.65;2.83;;;8.10;99.90;;;;;;4986046;28;20275;-82
2023/03/07 12:11:55;;;;;;;4.07;2.35;;;8.20;99.90;;;;;;4978416;28;20033;-83
2023/03/07 12:14:39;;;;;;;5.47;2.80;;;8.20;99.90;;;;;;4971182;28;20287;-84
2023/03/07 12:17:23;;;;;;;5.38;2.97;;;8.30;99.90;;;;;;4963939;28;20034;-85
2023/03/07 12:20:37;;;;;;;5.25;2.90;;;8.30;99.90;;;;;;4989432;28;20108;-86
2023/03/07 12:23:15;;;;;;;5.32;2.80;;;8.40;99.90;;;;;;4959055;28;20037;-86
2023/03/07 12:25:51;;;;;;;5.45;3.03;;;8.50;99.90;;;;;;4970908;28;20099;-81
2023/03/07 12:28:20;;;;;;;4.80;2.70;;;8.50;99.90;;;;;;4969148;28;20736;-83
2023/03/07 12:30:49;;;;;;;5.90;3.30;;;8.50;99.90;;;;;;4975930;28;20495;-86
2023/03/07 12:33:27;;;;;;;5.18;3.03;;;8.60;99.90;;;;;;4964102;28;20267;-83
2023/03/07 12:36:00;;;;;;;4.82;2.80;;;8.60;99.90;;;;;;4993324;28;20022;-86
2023/03/07 12:38:35;;;;;;;3.72;2.20;;;8.60;99.90;;;;;;4989254;28;20029;-83
2023/03/07 12:41:29;;;;;;;3.80;2.30;;;8.70;99.90;;;;;;4967199;28;20040;-85
2023/03/07 12:44:01;;;;;;;4.53;2.45;;;8.70;99.90;;;;;;5005667;28;20216;-86
2023/03/07 12:46:50;;;;;;;3.78;2.20;;;8.70;99.90;;;;;;4984033;28;20365;-84
2023/03/07 12:49:24;;;;;;;3.45;1.92;;;8.80;99.90;;;;;;4983407;28;20323;-82
2023/03/07 12:52:03;;;;;;;3.35;2.05;;;8.80;99.90;;;;;;4967816;28;20084;-86
2023/03/07 12:54:45;;;;;;;4.00;2.13;;;8.80;99.90;;;;;;4983682;28;20034;-83
2023/03/07 12:57:17;;;;;;;3.60;1.98;;;8.80;99.90;;;;;;5019949;28;20036;-84
2023/03/07 12:59:43;;;;;;;4.53;2.38;;;8.80;99.90;;;;;;4995965;28;20065;-81
2023/03/07 13:02:38;;;;;;;4.22;2.13;;;8.90;99.90;;;;;;4957266;28;20025;-82
2023/03/07 13:05:04;;;;;;;4.15;2.30;;;8.90;99.90;;;;;;4976035;28;20034;-85
2023/03/07 13:07:32;;;;;;;4.80;2.30;;;9.00;99.90;;;;;;4987919;28;20537;-83
2023/03/07 13:10:02;;;;;;;3.90;2.15;;;8.90;99.90;;;;;;4981725;28;20084;-87